Stuttgart Airport EDDS

Flugplatz Daten

Name: Stuttgart Airport

Ident: EDDS

Lat: 48,68989944

Long: 9,221960068

Platzhöhe: 1276 ft

IataCode: STR

City: Stuttgart

Metar

2021/10/20 13:20
EDDS 201320Z 23010G21KT 180V270 9999 BKN048 21/11 Q1013 NOSIG

Taf

2021/10/20 12:27
TAF TAF EDDS 201100Z 2012/2112 20008KT CAVOK
TEMPO 2019/2021 SHRA BKN035CB
TEMPO 2021/2105 RA
BECMG 2103/2106 23015G30KT PROB40
TEMPO 2106/2112 27020G45KT SHRA SCT035CB

Webcams

Runway Apron apron
Gewünschte Webcam nicht vorhanden? Dann fügen Sie eine hinzu. Sie wird dann so schnell wie möglich freigeschaltet
Url: Title: